sensor_id;sensor_type;location;lat;lon;timestamp;noise_LAeq;noise_LA_min;noise_LA_max;noise_LA01;noise_LA95
76261;Laerm;65076;52.362;6.588;2023-03-14T00:01:10;39.08;32.91;62.79;;
76261;Laerm;65076;52.362;6.588;2023-03-14T00:03:38;37.67;33.84;46.28;;
76261;Laerm;65076;52.362;6.588;2023-03-14T00:06:08;39.44;32.79;56.53;;
76261;Laerm;65076;52.362;6.588;2023-03-14T00:08:36;36.32;32.65;44.62;;
76261;Laerm;65076;52.362;6.588;2023-03-14T00:11:07;38.34;34.08;51.04;;
76261;Laerm;65076;52.362;6.588;2023-03-14T00:13:37;49.55;34.39;70.48;;
76261;Laerm;65076;52.362;6.588;2023-03-14T00:16:08;38.22;33.54;59.93;;
76261;Laerm;65076;52.362;6.588;2023-03-14T00:18:38;38.32;33.67;52.75;;
76261;Laerm;65076;52.362;6.588;2023-03-14T00:21:08;39.27;32.91;56.10;;
76261;Laerm;65076;52.362;6.588;2023-03-14T00:23:39;38.34;32.58;53.77;;
76261;Laerm;65076;52.362;6.588;2023-03-14T00:26:10;41.92;33.91;57.60;;
76261;Laerm;65076;52.362;6.588;2023-03-14T00:28:41;49.36;35.60;65.55;;
76261;Laerm;65076;52.362;6.588;2023-03-14T00:31:12;42.43;34.61;64.17;;
76261;Laerm;65076;52.362;6.588;2023-03-14T00:33:41;45.17;34.22;62.64;;
76261;Laerm;65076;52.362;6.588;2023-03-14T00:36:13;40.47;33.45;61.69;;
76261;Laerm;65076;52.362;6.588;2023-03-14T00:38:43;37.20;33.02;51.30;;
76261;Laerm;65076;52.362;6.588;2023-03-14T00:41:13;37.92;33.02;51.78;;
76261;Laerm;65076;52.362;6.588;2023-03-14T00:43:43;38.60;32.78;50.41;;
76261;Laerm;65076;52.362;6.588;2023-03-14T00:46:11;46.53;33.57;71.47;;
76261;Laerm;65076;52.362;6.588;2023-03-14T00:48:39;40.73;35.01;56.38;;
76261;Laerm;65076;52.362;6.588;2023-03-14T00:51:08;38.21;33.17;50.91;;
76261;Laerm;65076;52.362;6.588;2023-03-14T00:53:38;44.41;34.12;67.18;;
76261;Laerm;65076;52.362;6.588;2023-03-14T00:56:10;43.26;33.76;65.26;;
76261;Laerm;65076;52.362;6.588;2023-03-14T00:58:39;43.63;35.86;60.91;;
76261;Laerm;65076;52.362;6.588;2023-03-14T01:01:10;42.58;34.18;61.55;;
76261;Laerm;65076;52.362;6.588;2023-03-14T01:03:39;45.63;35.76;56.34;;
76261;Laerm;65076;52.362;6.588;2023-03-14T01:06:11;64.54;36.37;75.73;;
76261;Laerm;65076;52.362;6.588;2023-03-14T01:08:39;43.50;34.98;66.38;;
76261;Laerm;65076;52.362;6.588;2023-03-14T01:11:10;47.88;40.04;64.17;;
76261;Laerm;65076;52.362;6.588;2023-03-14T01:13:39;45.69;37.63;68.46;;
76261;Laerm;65076;52.362;6.588;2023-03-14T01:16:10;47.46;39.68;59.86;;
76261;Laerm;65076;52.362;6.588;2023-03-14T01:18:41;52.37;42.26;70.82;;
76261;Laerm;65076;52.362;6.588;2023-03-14T01:21:15;47.35;38.18;74.94;;
76261;Laerm;65076;52.362;6.588;2023-03-14T01:23:44;50.95;38.17;75.18;;
76261;Laerm;65076;52.362;6.588;2023-03-14T01:26:15;39.28;33.09;58.56;;
76261;Laerm;65076;52.362;6.588;2023-03-14T01:28:46;40.61;33.94;55.67;;
76261;Laerm;65076;52.362;6.588;2023-03-14T01:31:17;46.95;32.63;65.24;;
76261;Laerm;65076;52.362;6.588;2023-03-14T01:33:46;41.54;32.25;63.69;;
76261;Laerm;65076;52.362;6.588;2023-03-14T01:36:15;41.35;32.28;72.74;;
76261;Laerm;65076;52.362;6.588;2023-03-14T01:38:44;38.63;31.81;64.57;;
76261;Laerm;65076;52.362;6.588;2023-03-14T01:41:16;37.09;32.06;62.97;;
76261;Laerm;65076;52.362;6.588;2023-03-14T01:43:45;37.28;31.98;62.48;;
76261;Laerm;65076;52.362;6.588;2023-03-14T01:46:41;44.51;32.46;63.71;;
76261;Laerm;65076;52.362;6.588;2023-03-14T01:49:22;40.42;32.75;64.63;;
76261;Laerm;65076;52.362;6.588;2023-03-14T01:51:56;66.52;32.04;78.23;;
76261;Laerm;65076;52.362;6.588;2023-03-14T01:54:32;42.35;32.01;64.29;;
76261;Laerm;65076;52.362;6.588;2023-03-14T01:57:07;38.30;32.93;63.09;;
76261;Laerm;65076;52.362;6.588;2023-03-14T01:59:38;38.98;32.78;63.12;;
76261;Laerm;65076;52.362;6.588;2023-03-14T02:02:11;40.79;32.35;68.19;;
76261;Laerm;65076;52.362;6.588;2023-03-14T02:04:41;44.59;34.37;63.20;;
76261;Laerm;65076;52.362;6.588;2023-03-14T02:07:14;44.20;33.93;65.73;;
76261;Laerm;65076;52.362;6.588;2023-03-14T02:09:43;45.59;35.92;66.24;;
76261;Laerm;65076;52.362;6.588;2023-03-14T02:12:15;45.06;36.90;63.79;;
76261;Laerm;65076;52.362;6.588;2023-03-14T02:14:44;48.31;35.77;82.12;;
76261;Laerm;65076;52.362;6.588;2023-03-14T02:17:19;51.03;37.03;79.95;;
76261;Laerm;65076;52.362;6.588;2023-03-14T02:20:09;48.98;36.59;67.05;;
76261;Laerm;65076;52.362;6.588;2023-03-14T02:22:40;42.92;33.90;65.37;;
76261;Laerm;65076;52.362;6.588;2023-03-14T02:25:16;45.26;32.62;66.98;;
76261;Laerm;65076;52.362;6.588;2023-03-14T02:27:48;40.20;32.19;59.12;;
76261;Laerm;65076;52.362;6.588;2023-03-14T02:30:20;43.74;32.32;65.47;;
76261;Laerm;65076;52.362;6.588;2023-03-14T02:32:54;44.65;34.38;62.89;;
76261;Laerm;65076;52.362;6.588;2023-03-14T02:35:27;41.74;32.85;60.93;;
76261;Laerm;65076;52.362;6.588;2023-03-14T02:38:02;41.75;34.76;60.58;;
76261;Laerm;65076;52.362;6.588;2023-03-14T02:40:32;40.10;32.69;56.69;;
76261;Laerm;65076;52.362;6.588;2023-03-14T02:43:01;44.20;34.13;59.83;;
76261;Laerm;65076;52.362;6.588;2023-03-14T02:45:39;42.36;32.60;62.83;;
76261;Laerm;65076;52.362;6.588;2023-03-14T02:48:15;36.64;31.85;63.33;;
76261;Laerm;65076;52.362;6.588;2023-03-14T02:50:45;36.59;31.65;59.24;;
76261;Laerm;65076;52.362;6.588;2023-03-14T02:53:19;41.45;32.63;61.95;;
76261;Laerm;65076;52.362;6.588;2023-03-14T02:55:48;45.64;32.46;67.51;;
76261;Laerm;65076;52.362;6.588;2023-03-14T02:58:19;41.77;33.26;59.44;;
76261;Laerm;65076;52.362;6.588;2023-03-14T03:00:47;39.28;32.03;62.52;;
76261;Laerm;65076;52.362;6.588;2023-03-14T03:03:16;36.41;32.15;48.79;;
76261;Laerm;65076;52.362;6.588;2023-03-14T03:05:48;42.46;32.33;64.82;;
76261;Laerm;65076;52.362;6.588;2023-03-14T03:08:17;37.46;33.04;56.68;;
76261;Laerm;65076;52.362;6.588;2023-03-14T03:10:45;36.60;32.62;45.80;;
76261;Laerm;65076;52.362;6.588;2023-03-14T03:13:14;41.96;33.99;63.27;;
76261;Laerm;65076;52.362;6.588;2023-03-14T03:15:43;49.15;32.20;67.27;;
76261;Laerm;65076;52.362;6.588;2023-03-14T03:18:12;38.66;32.55;56.06;;
76261;Laerm;65076;52.362;6.588;2023-03-14T03:20:40;40.78;33.35;59.77;;
76261;Laerm;65076;52.362;6.588;2023-03-14T03:23:08;40.50;32.98;52.60;;
76261;Laerm;65076;52.362;6.588;2023-03-14T03:25:35;47.80;34.66;72.56;;
76261;Laerm;65076;52.362;6.588;2023-03-14T03:28:04;42.00;35.87;56.98;;
76261;Laerm;65076;52.362;6.588;2023-03-14T03:30:38;40.06;33.73;60.11;;
76261;Laerm;65076;52.362;6.588;2023-03-14T03:33:08;48.18;34.23;65.59;;
76261;Laerm;65076;52.362;6.588;2023-03-14T03:35:43;41.89;34.97;57.59;;
76261;Laerm;65076;52.362;6.588;2023-03-14T03:38:12;46.92;34.08;64.84;;
76261;Laerm;65076;52.362;6.588;2023-03-14T03:40:41;39.04;33.72;57.87;;
76261;Laerm;65076;52.362;6.588;2023-03-14T03:43:09;38.44;33.94;54.57;;
76261;Laerm;65076;52.362;6.588;2023-03-14T03:45:36;43.90;35.60;60.09;;
76261;Laerm;65076;52.362;6.588;2023-03-14T03:48:06;68.51;33.75;81.06;;
76261;Laerm;65076;52.362;6.588;2023-03-14T03:50:34;47.61;34.33;65.08;;
76261;Laerm;65076;52.362;6.588;2023-03-14T03:53:02;49.48;34.73;65.60;;
76261;Laerm;65076;52.362;6.588;2023-03-14T03:55:30;42.53;34.90;57.67;;
76261;Laerm;65076;52.362;6.588;2023-03-14T03:57:58;40.76;34.51;61.14;;
76261;Laerm;65076;52.362;6.588;2023-03-14T04:00:26;67.66;35.59;82.56;;
76261;Laerm;65076;52.362;6.588;2023-03-14T04:02:54;63.18;35.96;81.90;;
76261;Laerm;65076;52.362;6.588;2023-03-14T04:05:23;47.89;36.47;62.26;;
76261;Laerm;65076;52.362;6.588;2023-03-14T04:07:51;41.92;35.59;60.01;;
76261;Laerm;65076;52.362;6.588;2023-03-14T04:10:19;57.79;36.31;77.13;;
76261;Laerm;65076;52.362;6.588;2023-03-14T04:12:46;43.32;36.79;62.85;;
76261;Laerm;65076;52.362;6.588;2023-03-14T04:15:14;46.63;36.65;64.06;;
76261;Laerm;65076;52.362;6.588;2023-03-14T04:17:42;42.88;36.08;59.12;;
76261;Laerm;65076;52.362;6.588;2023-03-14T04:20:11;49.85;37.10;74.15;;
76261;Laerm;65076;52.362;6.588;2023-03-14T04:22:40;42.34;37.22;50.53;;
76261;Laerm;65076;52.362;6.588;2023-03-14T04:25:10;43.97;38.04;61.84;;
76261;Laerm;65076;52.362;6.588;2023-03-14T04:27:38;42.52;38.08;55.72;;
76261;Laerm;65076;52.362;6.588;2023-03-14T04:30:08;48.62;38.00;65.96;;
76261;Laerm;65076;52.362;6.588;2023-03-14T04:32:39;43.35;38.47;57.48;;
76261;Laerm;65076;52.362;6.588;2023-03-14T04:35:08;49.70;38.45;66.39;;
76261;Laerm;65076;52.362;6.588;2023-03-14T04:37:35;52.51;38.18;66.99;;
76261;Laerm;65076;52.362;6.588;2023-03-14T04:40:07;57.28;40.06;77.31;;
76261;Laerm;65076;52.362;6.588;2023-03-14T04:42:35;47.71;38.91;67.43;;
76261;Laerm;65076;52.362;6.588;2023-03-14T04:45:05;48.02;37.79;68.22;;
76261;Laerm;65076;52.362;6.588;2023-03-14T04:47:33;48.38;39.57;63.84;;
76261;Laerm;65076;52.362;6.588;2023-03-14T04:50:01;49.02;39.49;63.87;;
76261;Laerm;65076;52.362;6.588;2023-03-14T04:52:29;54.26;38.59;67.14;;
76261;Laerm;65076;52.362;6.588;2023-03-14T04:54:57;54.84;38.38;71.21;;
76261;Laerm;65076;52.362;6.588;2023-03-14T04:57:26;52.62;38.75;70.62;;
76261;Laerm;65076;52.362;6.588;2023-03-14T04:59:54;55.05;40.21;73.35;;
76261;Laerm;65076;52.362;6.588;2023-03-14T05:02:22;48.94;38.91;64.01;;
76261;Laerm;65076;52.362;6.588;2023-03-14T05:04:50;50.00;39.40;63.36;;
76261;Laerm;65076;52.362;6.588;2023-03-14T05:07:18;48.95;39.78;62.80;;
76261;Laerm;65076;52.362;6.588;2023-03-14T05:09:46;49.72;39.29;70.88;;
76261;Laerm;65076;52.362;6.588;2023-03-14T05:12:14;52.78;39.59;66.26;;
76261;Laerm;65076;52.362;6.588;2023-03-14T05:14:43;60.15;40.29;76.89;;
76261;Laerm;65076;52.362;6.588;2023-03-14T05:17:11;65.89;40.81;78.11;;
76261;Laerm;65076;52.362;6.588;2023-03-14T05:19:47;56.64;40.90;79.83;;
76261;Laerm;65076;52.362;6.588;2023-03-14T05:22:15;52.72;40.67;68.24;;
76261;Laerm;65076;52.362;6.588;2023-03-14T05:24:43;51.23;39.25;64.45;;
76261;Laerm;65076;52.362;6.588;2023-03-14T05:27:11;50.32;39.56;69.91;;
76261;Laerm;65076;52.362;6.588;2023-03-14T05:29:38;55.57;40.55;72.33;;
76261;Laerm;65076;52.362;6.588;2023-03-14T05:32:08;52.77;41.28;71.68;;
76261;Laerm;65076;52.362;6.588;2023-03-14T05:34:36;51.15;41.10;64.62;;
76261;Laerm;65076;52.362;6.588;2023-03-14T05:37:04;48.56;40.29;61.50;;
76261;Laerm;65076;52.362;6.588;2023-03-14T05:39:32;53.09;42.36;65.04;;
76261;Laerm;65076;52.362;6.588;2023-03-14T05:42:00;62.08;43.25;78.15;;
76261;Laerm;65076;52.362;6.588;2023-03-14T05:44:28;51.66;41.21;66.19;;
76261;Laerm;65076;52.362;6.588;2023-03-14T05:46:56;51.93;42.01;62.71;;
76261;Laerm;65076;52.362;6.588;2023-03-14T05:49:25;54.48;42.36;67.44;;
76261;Laerm;65076;52.362;6.588;2023-03-14T05:51:53;55.26;41.89;66.76;;
76261;Laerm;65076;52.362;6.588;2023-03-14T05:54:21;55.79;41.98;67.91;;
76261;Laerm;65076;52.362;6.588;2023-03-14T05:56:49;57.01;44.10;71.41;;
76261;Laerm;65076;52.362;6.588;2023-03-14T05:59:16;57.47;44.02;73.07;;
76261;Laerm;65076;52.362;6.588;2023-03-14T06:01:44;55.66;41.98;70.49;;
76261;Laerm;65076;52.362;6.588;2023-03-14T06:04:12;57.89;42.24;72.59;;
76261;Laerm;65076;52.362;6.588;2023-03-14T06:06:42;57.78;43.17;70.65;;
76261;Laerm;65076;52.362;6.588;2023-03-14T06:09:10;55.98;43.23;68.58;;
76261;Laerm;65076;52.362;6.588;2023-03-14T06:11:38;62.47;44.14;77.03;;
76261;Laerm;65076;52.362;6.588;2023-03-14T06:14:06;54.78;41.08;68.35;;
76261;Laerm;65076;52.362;6.588;2023-03-14T06:16:34;56.05;43.21;70.37;;
76261;Laerm;65076;52.362;6.588;2023-03-14T06:19:02;60.90;43.38;77.10;;
76261;Laerm;65076;52.362;6.588;2023-03-14T06:21:30;62.27;47.34;79.06;;
76261;Laerm;65076;52.362;6.588;2023-03-14T06:23:59;59.83;47.39;69.84;;
76261;Laerm;65076;52.362;6.588;2023-03-14T06:26:27;59.22;46.88;70.21;;
76261;Laerm;65076;52.362;6.588;2023-03-14T06:28:55;56.66;47.18;72.91;;
76261;Laerm;65076;52.362;6.588;2023-03-14T06:31:23;58.31;47.44;67.82;;
76261;Laerm;65076;52.362;6.588;2023-03-14T06:33:51;60.37;44.98;73.73;;
76261;Laerm;65076;52.362;6.588;2023-03-14T06:36:18;60.05;44.26;69.01;;
76261;Laerm;65076;52.362;6.588;2023-03-14T06:38:46;60.82;48.23;68.51;;
76261;Laerm;65076;52.362;6.588;2023-03-14T06:41:16;61.10;45.29;76.20;;
76261;Laerm;65076;52.362;6.588;2023-03-14T06:43:44;61.54;45.73;69.82;;
76261;Laerm;65076;52.362;6.588;2023-03-14T06:46:12;60.64;44.28;68.96;;
76261;Laerm;65076;52.362;6.588;2023-03-14T06:48:40;62.88;45.13;86.85;;
76261;Laerm;65076;52.362;6.588;2023-03-14T06:51:08;62.70;47.96;74.68;;
76261;Laerm;65076;52.362;6.588;2023-03-14T06:53:36;59.90;46.06;68.19;;
76261;Laerm;65076;52.362;6.588;2023-03-14T06:56:05;62.90;48.90;73.26;;
76261;Laerm;65076;52.362;6.588;2023-03-14T06:58:34;58.15;47.73;71.24;;
76261;Laerm;65076;52.362;6.588;2023-03-14T07:01:03;62.19;51.76;70.03;;
76261;Laerm;65076;52.362;6.588;2023-03-14T07:03:31;61.21;47.89;71.01;;
76261;Laerm;65076;52.362;6.588;2023-03-14T07:05:59;60.94;47.23;72.68;;
76261;Laerm;65076;52.362;6.588;2023-03-14T07:08:27;59.55;47.64;74.73;;
76261;Laerm;65076;52.362;6.588;2023-03-14T07:10:56;63.52;49.36;77.29;;
76261;Laerm;65076;52.362;6.588;2023-03-14T07:13:24;60.04;49.77;68.72;;
76261;Laerm;65076;52.362;6.588;2023-03-14T07:15:53;59.64;48.43;68.15;;
76261;Laerm;65076;52.362;6.588;2023-03-14T07:18:21;59.13;48.11;67.16;;
76261;Laerm;65076;52.362;6.588;2023-03-14T07:20:49;62.39;52.24;72.11;;
76261;Laerm;65076;52.362;6.588;2023-03-14T07:23:17;60.95;49.96;73.18;;
76261;Laerm;65076;52.362;6.588;2023-03-14T07:25:45;61.35;49.52;75.25;;
76261;Laerm;65076;52.362;6.588;2023-03-14T07:28:13;60.47;45.71;75.09;;
76261;Laerm;65076;52.362;6.588;2023-03-14T07:30:41;59.36;48.30;72.03;;
76261;Laerm;65076;52.362;6.588;2023-03-14T07:33:11;58.84;47.94;70.65;;
76261;Laerm;65076;52.362;6.588;2023-03-14T07:35:39;61.45;49.02;71.13;;
76261;Laerm;65076;52.362;6.588;2023-03-14T07:38:07;60.97;49.92;69.18;;
76261;Laerm;65076;52.362;6.588;2023-03-14T07:40:35;60.97;47.18;80.80;;
76261;Laerm;65076;52.362;6.588;2023-03-14T07:43:03;61.60;47.91;72.95;;
76261;Laerm;65076;52.362;6.588;2023-03-14T07:45:31;63.59;50.91;75.97;;
76261;Laerm;65076;52.362;6.588;2023-03-14T07:48:07;60.89;50.54;78.33;;
76261;Laerm;65076;52.362;6.588;2023-03-14T07:50:36;60.22;49.65;80.86;;
76261;Laerm;65076;52.362;6.588;2023-03-14T07:53:04;60.81;50.86;81.51;;
76261;Laerm;65076;52.362;6.588;2023-03-14T07:55:32;62.45;51.69;73.28;;
76261;Laerm;65076;52.362;6.588;2023-03-14T07:58:00;61.01;43.55;78.68;;
76261;Laerm;65076;52.362;6.588;2023-03-14T08:00:28;57.69;42.61;67.53;;
76261;Laerm;65076;52.362;6.588;2023-03-14T08:02:56;56.36;39.01;68.35;;
76261;Laerm;65076;52.362;6.588;2023-03-14T08:05:24;56.04;41.50;67.66;;
76261;Laerm;65076;52.362;6.588;2023-03-14T08:07:54;56.33;40.90;69.95;;
76261;Laerm;65076;52.362;6.588;2023-03-14T08:10:22;57.82;42.55;71.97;;
76261;Laerm;65076;52.362;6.588;2023-03-14T08:12:51;55.81;42.12;69.15;;
76261;Laerm;65076;52.362;6.588;2023-03-14T08:15:21;56.35;40.12;72.53;;
76261;Laerm;65076;52.362;6.588;2023-03-14T08:17:50;54.85;40.59;66.74;;
76261;Laerm;65076;52.362;6.588;2023-03-14T08:20:21;55.22;39.44;72.95;;
76261;Laerm;65076;52.362;6.588;2023-03-14T08:22:50;54.54;40.04;66.09;;
76261;Laerm;65076;52.362;6.588;2023-03-14T08:25:19;55.96;40.51;74.72;;
76261;Laerm;65076;52.362;6.588;2023-03-14T08:27:47;56.64;43.18;69.27;;
76261;Laerm;65076;52.362;6.588;2023-03-14T08:30:17;58.17;42.92;68.97;;
76261;Laerm;65076;52.362;6.588;2023-03-14T08:32:46;56.73;41.54;68.62;;
76261;Laerm;65076;52.362;6.588;2023-03-14T08:35:14;55.94;40.59;66.89;;
76261;Laerm;65076;52.362;6.588;2023-03-14T08:37:42;57.14;43.34;69.26;;
76261;Laerm;65076;52.362;6.588;2023-03-14T08:40:11;56.66;41.77;69.01;;
76261;Laerm;65076;52.362;6.588;2023-03-14T08:42:41;57.44;42.78;70.97;;
76261;Laerm;65076;52.362;6.588;2023-03-14T08:45:13;56.69;41.62;69.47;;
76261;Laerm;65076;52.362;6.588;2023-03-14T08:47:43;54.68;41.98;71.01;;
76261;Laerm;65076;52.362;6.588;2023-03-14T08:50:13;54.98;38.98;68.02;;
76261;Laerm;65076;52.362;6.588;2023-03-14T08:52:42;55.03;41.91;80.48;;
76261;Laerm;65076;52.362;6.588;2023-03-14T08:55:11;58.91;42.76;68.28;;
76261;Laerm;65076;52.362;6.588;2023-03-14T08:57:40;54.15;41.80;66.40;;
76261;Laerm;65076;52.362;6.588;2023-03-14T09:00:10;56.66;39.22;68.94;;
76261;Laerm;65076;52.362;6.588;2023-03-14T09:02:39;58.38;43.66;73.30;;
76261;Laerm;65076;52.362;6.588;2023-03-14T09:05:08;51.43;40.47;64.95;;
76261;Laerm;65076;52.362;6.588;2023-03-14T09:07:38;58.60;40.27;75.54;;
76261;Laerm;65076;52.362;6.588;2023-03-14T09:10:08;53.60;39.05;65.47;;
76261;Laerm;65076;52.362;6.588;2023-03-14T09:12:36;55.29;38.88;72.95;;
76261;Laerm;65076;52.362;6.588;2023-03-14T09:15:07;53.70;38.94;67.27;;
76261;Laerm;65076;52.362;6.588;2023-03-14T09:17:36;53.01;40.42;78.34;;
76261;Laerm;65076;52.362;6.588;2023-03-14T09:20:05;56.02;38.85;70.07;;
76261;Laerm;65076;52.362;6.588;2023-03-14T09:22:35;55.90;39.51;70.19;;
76261;Laerm;65076;52.362;6.588;2023-03-14T09:25:05;56.19;41.28;66.55;;
76261;Laerm;65076;52.362;6.588;2023-03-14T09:27:33;59.07;44.90;69.17;;
76261;Laerm;65076;52.362;6.588;2023-03-14T09:30:01;56.66;40.92;77.12;;
76261;Laerm;65076;52.362;6.588;2023-03-14T09:32:31;54.46;40.60;70.91;;
76261;Laerm;65076;52.362;6.588;2023-03-14T09:35:00;56.89;41.88;67.24;;
76261;Laerm;65076;52.362;6.588;2023-03-14T09:37:27;51.52;39.14;63.30;;
76261;Laerm;65076;52.362;6.588;2023-03-14T09:39:55;56.24;40.55;75.75;;
76261;Laerm;65076;52.362;6.588;2023-03-14T09:42:27;53.52;39.47;71.47;;
76261;Laerm;65076;52.362;6.588;2023-03-14T09:44:59;56.41;40.77;68.34;;
76261;Laerm;65076;52.362;6.588;2023-03-14T09:47:31;55.25;40.45;71.79;;
76261;Laerm;65076;52.362;6.588;2023-03-14T09:50:02;55.42;39.14;66.67;;
76261;Laerm;65076;52.362;6.588;2023-03-14T09:52:38;55.49;37.50;67.69;;
76261;Laerm;65076;52.362;6.588;2023-03-14T09:55:13;50.52;37.33;64.24;;
76261;Laerm;65076;52.362;6.588;2023-03-14T09:57:45;55.60;40.00;70.77;;
76261;Laerm;65076;52.362;6.588;2023-03-14T10:00:18;49.31;38.78;63.06;;
76261;Laerm;65076;52.362;6.588;2023-03-14T10:02:53;52.39;39.22;63.41;;
76261;Laerm;65076;52.362;6.588;2023-03-14T10:05:25;54.39;39.60;65.77;;
76261;Laerm;65076;52.362;6.588;2023-03-14T10:07:54;54.02;39.21;64.95;;
76261;Laerm;65076;52.362;6.588;2023-03-14T10:10:26;52.88;38.40;68.22;;
76261;Laerm;65076;52.362;6.588;2023-03-14T10:12:57;51.26;40.22;62.83;;
76261;Laerm;65076;52.362;6.588;2023-03-14T10:15:30;60.56;41.02;75.38;;
76261;Laerm;65076;52.362;6.588;2023-03-14T10:18:03;51.78;39.27;63.61;;
76261;Laerm;65076;52.362;6.588;2023-03-14T10:20:34;53.33;38.40;66.84;;
76261;Laerm;65076;52.362;6.588;2023-03-14T10:23:06;54.23;41.06;63.84;;
76261;Laerm;65076;52.362;6.588;2023-03-14T10:26:03;57.40;42.49;72.05;;
76261;Laerm;65076;52.362;6.588;2023-03-14T10:28:33;57.15;42.18;69.28;;
76261;Laerm;65076;52.362;6.588;2023-03-14T10:31:01;49.15;37.28;66.08;;
76261;Laerm;65076;52.362;6.588;2023-03-14T10:33:33;55.96;38.31;70.42;;
76261;Laerm;65076;52.362;6.588;2023-03-14T10:36:03;52.51;35.99;65.07;;
76261;Laerm;65076;52.362;6.588;2023-03-14T10:38:35;55.44;38.77;70.46;;
76261;Laerm;65076;52.362;6.588;2023-03-14T10:41:17;54.44;38.54;67.74;;
76261;Laerm;65076;52.362;6.588;2023-03-14T10:43:50;53.25;39.40;65.61;;
76261;Laerm;65076;52.362;6.588;2023-03-14T10:46:20;51.32;39.93;64.06;;
76261;Laerm;65076;52.362;6.588;2023-03-14T10:48:52;55.42;40.88;68.67;;
76261;Laerm;65076;52.362;6.588;2023-03-14T10:51:26;54.46;39.40;67.02;;
76261;Laerm;65076;52.362;6.588;2023-03-14T10:54:00;55.19;40.62;65.55;;
76261;Laerm;65076;52.362;6.588;2023-03-14T10:56:35;56.35;40.10;73.73;;
76261;Laerm;65076;52.362;6.588;2023-03-14T10:59:07;55.48;39.99;68.36;;
76261;Laerm;65076;52.362;6.588;2023-03-14T11:01:45;57.01;38.11;73.04;;
76261;Laerm;65076;52.362;6.588;2023-03-14T11:04:37;52.72;40.50;62.86;;
76261;Laerm;65076;52.362;6.588;2023-03-14T11:07:18;55.61;40.18;73.03;;
76261;Laerm;65076;52.362;6.588;2023-03-14T11:09:56;55.07;43.05;69.94;;
76261;Laerm;65076;52.362;6.588;2023-03-14T11:12:41;55.56;39.87;64.70;;
76261;Laerm;65076;52.362;6.588;2023-03-14T11:15:20;55.35;39.94;69.53;;
76261;Laerm;65076;52.362;6.588;2023-03-14T11:18:18;56.83;41.04;73.63;;
76261;Laerm;65076;52.362;6.588;2023-03-14T11:20:55;75.77;39.48;88.57;;
76261;Laerm;65076;52.362;6.588;2023-03-14T11:23:38;85.34;37.50;97.40;;
76261;Laerm;65076;52.362;6.588;2023-03-14T11:26:26;52.95;39.46;64.91;;
76261;Laerm;65076;52.362;6.588;2023-03-14T11:28:58;54.78;41.80;69.76;;
76261;Laerm;65076;52.362;6.588;2023-03-14T11:31:35;52.84;36.09;65.11;;
76261;Laerm;65076;52.362;6.588;2023-03-14T11:34:15;53.49;37.75;63.69;;
76261;Laerm;65076;52.362;6.588;2023-03-14T11:36:53;64.94;39.71;78.40;;
76261;Laerm;65076;52.362;6.588;2023-03-14T11:39:29;56.38;39.52;68.96;;
76261;Laerm;65076;52.362;6.588;2023-03-14T11:42:03;59.07;39.81;75.50;;
76261;Laerm;65076;52.362;6.588;2023-03-14T11:44:37;53.20;37.55;64.98;;
76261;Laerm;65076;52.362;6.588;2023-03-14T11:47:12;49.84;38.60;63.40;;
76261;Laerm;65076;52.362;6.588;2023-03-14T11:49:48;57.48;39.03;73.56;;
76261;Laerm;65076;52.362;6.588;2023-03-14T11:52:25;53.48;38.33;66.74;;
76261;Laerm;65076;52.362;6.588;2023-03-14T11:55:00;52.57;37.43;69.26;;
76261;Laerm;65076;52.362;6.588;2023-03-14T11:57:32;57.22;42.91;72.55;;
76261;Laerm;65076;52.362;6.588;2023-03-14T12:00:13;55.76;42.98;69.92;;
76261;Laerm;65076;52.362;6.588;2023-03-14T12:02:50;54.09;39.68;68.70;;
76261;Laerm;65076;52.362;6.588;2023-03-14T12:05:45;55.17;38.44;69.93;;
76261;Laerm;65076;52.362;6.588;2023-03-14T12:08:39;51.33;37.15;65.09;;
76261;Laerm;65076;52.362;6.588;2023-03-14T12:11:19;51.94;41.06;64.89;;
76261;Laerm;65076;52.362;6.588;2023-03-14T12:13:51;57.85;38.46;74.42;;
76261;Laerm;65076;52.362;6.588;2023-03-14T12:16:38;54.67;39.69;71.21;;
76261;Laerm;65076;52.362;6.588;2023-03-14T12:19:28;53.55;39.06;68.13;;
76261;Laerm;65076;52.362;6.588;2023-03-14T12:22:00;53.60;37.76;66.42;;
76261;Laerm;65076;52.362;6.588;2023-03-14T12:24:34;53.09;41.65;76.84;;
76261;Laerm;65076;52.362;6.588;2023-03-14T12:27:05;51.09;40.70;61.16;;
76261;Laerm;65076;52.362;6.588;2023-03-14T12:29:58;60.38;43.24;75.61;;
76261;Laerm;65076;52.362;6.588;2023-03-14T12:32:30;53.09;43.01;69.56;;
76261;Laerm;65076;52.362;6.588;2023-03-14T12:35:34;56.41;41.68;70.73;;
76261;Laerm;65076;52.362;6.588;2023-03-14T12:38:04;57.39;42.04;77.49;;
76261;Laerm;65076;52.362;6.588;2023-03-14T12:40:47;60.09;41.68;81.61;;
76261;Laerm;65076;52.362;6.588;2023-03-14T12:43:30;61.43;41.51;77.57;;
76261;Laerm;65076;52.362;6.588;2023-03-14T12:46:18;53.37;40.14;63.61;;
76261;Laerm;65076;52.362;6.588;2023-03-14T12:48:50;54.23;40.84;70.74;;
76261;Laerm;65076;52.362;6.588;2023-03-14T12:51:30;56.84;39.55;71.34;;
76261;Laerm;65076;52.362;6.588;2023-03-14T12:54:27;53.43;39.71;65.47;;
76261;Laerm;65076;52.362;6.588;2023-03-14T12:57:25;49.02;37.16;60.80;;
76261;Laerm;65076;52.362;6.588;2023-03-14T12:59:57;52.62;41.77;69.82;;
76261;Laerm;65076;52.362;6.588;2023-03-14T13:02:28;55.08;39.65;68.57;;
76261;Laerm;65076;52.362;6.588;2023-03-14T13:05:05;65.78;40.35;78.43;;
76261;Laerm;65076;52.362;6.588;2023-03-14T13:08:04;53.95;40.71;68.58;;
76261;Laerm;65076;52.362;6.588;2023-03-14T13:10:42;59.67;38.87;76.16;;
76261;Laerm;65076;52.362;6.588;2023-03-14T13:13:21;56.41;40.18;72.11;;
76261;Laerm;65076;52.362;6.588;2023-03-14T13:15:56;54.22;39.67;70.22;;
76261;Laerm;65076;52.362;6.588;2023-03-14T13:18:33;53.57;41.40;65.63;;
76261;Laerm;65076;52.362;6.588;2023-03-14T13:21:09;58.26;42.35;75.63;;
76261;Laerm;65076;52.362;6.588;2023-03-14T13:23:39;54.31;42.95;66.01;;
76261;Laerm;65076;52.362;6.588;2023-03-14T13:26:14;51.48;37.60;62.72;;
76261;Laerm;65076;52.362;6.588;2023-03-14T13:28:43;55.32;43.07;72.07;;
76261;Laerm;65076;52.362;6.588;2023-03-14T13:31:22;55.03;41.35;68.70;;
76261;Laerm;65076;52.362;6.588;2023-03-14T13:33:59;53.84;42.57;65.30;;
76261;Laerm;65076;52.362;6.588;2023-03-14T13:36:27;54.58;40.97;68.20;;
76261;Laerm;65076;52.362;6.588;2023-03-14T13:38:58;60.64;41.39;79.62;;
76261;Laerm;65076;52.362;6.588;2023-03-14T13:41:25;56.41;40.41;72.82;;
76261;Laerm;65076;52.362;6.588;2023-03-14T13:44:03;54.39;40.36;64.25;;
76261;Laerm;65076;52.362;6.588;2023-03-14T13:46:35;63.72;39.12;76.09;;
76261;Laerm;65076;52.362;6.588;2023-03-14T13:49:05;62.43;39.24;76.50;;
76261;Laerm;65076;52.362;6.588;2023-03-14T13:51:39;53.62;41.42;64.91;;
76261;Laerm;65076;52.362;6.588;2023-03-14T13:54:14;54.73;39.93;67.61;;
76261;Laerm;65076;52.362;6.588;2023-03-14T13:56:43;54.08;38.92;66.46;;
76261;Laerm;65076;52.362;6.588;2023-03-14T13:59:23;52.46;41.74;67.21;;
76261;Laerm;65076;52.362;6.588;2023-03-14T14:01:52;60.52;41.67;75.55;;
76261;Laerm;65076;52.362;6.588;2023-03-14T14:04:24;53.88;37.63;67.14;;
76261;Laerm;65076;52.362;6.588;2023-03-14T14:06:57;54.51;38.86;67.37;;
76261;Laerm;65076;52.362;6.588;2023-03-14T14:09:29;50.53;39.23;67.22;;